sensor_id;sensor_type;location;lat;lon;timestamp;pressure;altitude;pressure_sealevel;temperature;humidity
23361;BME280;11852;50.082;18.554;2023-05-03T00:00:25;99217.01;;;13.28;84.81
23361;BME280;11852;50.082;18.554;2023-05-03T00:01:32;99218.5;;;13.28;84.81
23361;BME280;11852;50.082;18.554;2023-05-03T00:02:39;99216.5;;;13.31;84.7
23361;BME280;11852;50.082;18.554;2023-05-03T00:03:45;99216.0;;;13.3;84.61
23361;BME280;11852;50.082;18.554;2023-05-03T00:04:52;99215.0;;;13.3;84.69
23361;BME280;11852;50.082;18.554;2023-05-03T00:06:08;99215.5;;;13.28;84.69
23361;BME280;11852;50.082;18.554;2023-05-03T00:07:14;99215.0;;;13.28;84.79
23361;BME280;11852;50.082;18.554;2023-05-03T00:08:21;99216.0;;;13.27;84.78
23361;BME280;11852;50.082;18.554;2023-05-03T00:09:28;99216.5;;;13.26;84.79
23361;BME280;11852;50.082;18.554;2023-05-03T00:10:34;99219.0;;;13.26;84.87
23361;BME280;11852;50.082;18.554;2023-05-03T00:11:41;99218.01;;;13.26;84.89
23361;BME280;11852;50.082;18.554;2023-05-03T00:12:48;99216.0;;;13.29;84.88
23361;BME280;11852;50.082;18.554;2023-05-03T00:13:55;99219.0;;;13.3;84.88
23361;BME280;11852;50.082;18.554;2023-05-03T00:15:02;99216.5;;;13.3;84.79
23361;BME280;11852;50.082;18.554;2023-05-03T00:16:08;99219.0;;;13.3;84.78
23361;BME280;11852;50.082;18.554;2023-05-03T00:17:15;99219.0;;;13.27;84.78
23361;BME280;11852;50.082;18.554;2023-05-03T00:18:22;99216.5;;;13.27;84.74
23361;BME280;11852;50.082;18.554;2023-05-03T00:19:29;99219.5;;;13.28;84.71
23361;BME280;11852;50.082;18.554;2023-05-03T00:20:36;99217.0;;;13.26;84.82
23361;BME280;11852;50.082;18.554;2023-05-03T00:21:42;99216.5;;;13.23;84.96
23361;BME280;11852;50.082;18.554;2023-05-03T00:22:50;99214.0;;;13.22;84.99
23361;BME280;11852;50.082;18.554;2023-05-03T00:23:56;99213.5;;;13.22;85.01
23361;BME280;11852;50.082;18.554;2023-05-03T00:25:03;99214.5;;;13.23;85.04
23361;BME280;11852;50.082;18.554;2023-05-03T00:26:10;99213.5;;;13.22;85.06
23361;BME280;11852;50.082;18.554;2023-05-03T00:27:17;99215.0;;;13.23;85.11
23361;BME280;11852;50.082;18.554;2023-05-03T00:28:24;99216.5;;;13.22;85.08
23361;BME280;11852;50.082;18.554;2023-05-03T00:29:30;99214.5;;;13.22;85.11
23361;BME280;11852;50.082;18.554;2023-05-03T00:30:37;99219.0;;;13.23;85.17
23361;BME280;11852;50.082;18.554;2023-05-03T00:31:44;99218.0;;;13.25;85.16
23361;BME280;11852;50.082;18.554;2023-05-03T00:32:51;99218.0;;;13.27;85.12
23361;BME280;11852;50.082;18.554;2023-05-03T00:33:58;99218.5;;;13.3;85.08
23361;BME280;11852;50.082;18.554;2023-05-03T00:35:05;99216.5;;;13.31;85.0
23361;BME280;11852;50.082;18.554;2023-05-03T00:36:13;99215.0;;;13.32;85.04
23361;BME280;11852;50.082;18.554;2023-05-03T00:37:19;99216.0;;;13.34;84.96
23361;BME280;11852;50.082;18.554;2023-05-03T00:38:25;99216.0;;;13.34;84.98
23361;BME280;11852;50.082;18.554;2023-05-03T00:39:32;99214.0;;;13.34;85.01
23361;BME280;11852;50.082;18.554;2023-05-03T00:40:39;99213.5;;;13.34;84.96
23361;BME280;11852;50.082;18.554;2023-05-03T00:41:46;99213.0;;;13.35;84.94
23361;BME280;11852;50.082;18.554;2023-05-03T00:42:53;99215.5;;;13.36;84.89
23361;BME280;11852;50.082;18.554;2023-05-03T00:44:00;99213.5;;;13.36;84.85
23361;BME280;11852;50.082;18.554;2023-05-03T00:45:07;99214.5;;;13.35;84.93
23361;BME280;11852;50.082;18.554;2023-05-03T00:46:13;99216.0;;;13.36;84.93
23361;BME280;11852;50.082;18.554;2023-05-03T00:47:20;99214.5;;;13.37;84.93
23361;BME280;11852;50.082;18.554;2023-05-03T00:48:27;99216.0;;;13.38;84.93
23361;BME280;11852;50.082;18.554;2023-05-03T00:49:34;99215.0;;;13.38;84.94
23361;BME280;11852;50.082;18.554;2023-05-03T00:50:40;99218.01;;;13.37;84.81
23361;BME280;11852;50.082;18.554;2023-05-03T00:51:47;99217.51;;;13.35;84.83
23361;BME280;11852;50.082;18.554;2023-05-03T00:52:54;99217.01;;;13.33;84.89
23361;BME280;11852;50.082;18.554;2023-05-03T00:54:01;99218.5;;;13.34;84.96
23361;BME280;11852;50.082;18.554;2023-05-03T00:55:08;99219.99;;;13.35;84.97
23361;BME280;11852;50.082;18.554;2023-05-03T00:56:16;99216.0;;;13.35;84.99
23361;BME280;11852;50.082;18.554;2023-05-03T00:57:22;99216.5;;;13.35;84.96
23361;BME280;11852;50.082;18.554;2023-05-03T00:58:28;99217.01;;;13.34;84.93
23361;BME280;11852;50.082;18.554;2023-05-03T00:59:35;99215.5;;;13.35;84.91
23361;BME280;11852;50.082;18.554;2023-05-03T01:00:42;99217.01;;;13.34;84.9
23361;BME280;11852;50.082;18.554;2023-05-03T01:01:52;99215.5;;;13.32;84.95
23361;BME280;11852;50.082;18.554;2023-05-03T01:02:58;99214.0;;;13.31;84.9
23361;BME280;11852;50.082;18.554;2023-05-03T01:04:05;99212.0;;;13.31;84.97
23361;BME280;11852;50.082;18.554;2023-05-03T01:05:12;99216.5;;;13.3;84.93
23361;BME280;11852;50.082;18.554;2023-05-03T01:07:44;99218.5;;;13.32;84.81
23361;BME280;11852;50.082;18.554;2023-05-03T01:11:23;99219.99;;;13.31;84.81
23361;BME280;11852;50.082;18.554;2023-05-03T01:12:33;99221.0;;;13.31;84.77
23361;BME280;11852;50.082;18.554;2023-05-03T01:13:43;99220.49;;;13.32;84.74
23361;BME280;11852;50.082;18.554;2023-05-03T01:16:08;99222.5;;;13.31;84.8
23361;BME280;11852;50.082;18.554;2023-05-03T01:17:12;99222.5;;;13.29;84.76
23361;BME280;11852;50.082;18.554;2023-05-03T01:18:27;99226.0;;;13.28;84.84
23361;BME280;11852;50.082;18.554;2023-05-03T01:19:31;99222.5;;;13.31;84.82
23361;BME280;11852;50.082;18.554;2023-05-03T01:20:35;99224.0;;;13.31;84.81
23361;BME280;11852;50.082;18.554;2023-05-03T01:21:42;99222.0;;;13.32;84.85
23361;BME280;11852;50.082;18.554;2023-05-03T01:24:07;99223.0;;;13.31;84.85
23361;BME280;11852;50.082;18.554;2023-05-03T01:25:13;99224.5;;;13.29;84.82
23361;BME280;11852;50.082;18.554;2023-05-03T01:26:24;99222.5;;;13.26;84.9
23361;BME280;11852;50.082;18.554;2023-05-03T01:27:30;99226.0;;;13.26;84.92
23361;BME280;11852;50.082;18.554;2023-05-03T01:28:37;99225.5;;;13.28;84.93
23361;BME280;11852;50.082;18.554;2023-05-03T01:29:43;99226.0;;;13.29;84.93
23361;BME280;11852;50.082;18.554;2023-05-03T01:30:51;99226.5;;;13.27;84.86
23361;BME280;11852;50.082;18.554;2023-05-03T01:32:00;99226.5;;;13.27;84.94
23361;BME280;11852;50.082;18.554;2023-05-03T01:33:13;99227.5;;;13.28;84.93
23361;BME280;11852;50.082;18.554;2023-05-03T01:36:46;99228.0;;;13.31;84.96
23361;BME280;11852;50.082;18.554;2023-05-03T01:37:53;99228.0;;;13.31;84.96
23361;BME280;11852;50.082;18.554;2023-05-03T01:39:05;99228.0;;;13.28;85.01
23361;BME280;11852;50.082;18.554;2023-05-03T01:40:10;99229.51;;;13.3;84.94
23361;BME280;11852;50.082;18.554;2023-05-03T01:41:17;99229.0;;;13.27;84.98
23361;BME280;11852;50.082;18.554;2023-05-03T01:42:23;99227.0;;;13.29;85.06
23361;BME280;11852;50.082;18.554;2023-05-03T01:43:30;99227.5;;;13.28;85.09
23361;BME280;11852;50.082;18.554;2023-05-03T01:44:37;99230.01;;;13.28;85.1
23361;BME280;11852;50.082;18.554;2023-05-03T01:45:44;99229.51;;;13.29;85.07
23361;BME280;11852;50.082;18.554;2023-05-03T01:46:50;99230.0;;;13.28;85.07
23361;BME280;11852;50.082;18.554;2023-05-03T01:47:58;99231.99;;;13.26;85.04
23361;BME280;11852;50.082;18.554;2023-05-03T01:49:04;99229.51;;;13.26;84.93
23361;BME280;11852;50.082;18.554;2023-05-03T01:50:11;99229.51;;;13.25;84.94
23361;BME280;11852;50.082;18.554;2023-05-03T01:51:23;99228.5;;;13.26;84.92
23361;BME280;11852;50.082;18.554;2023-05-03T01:52:30;99229.5;;;13.27;84.88
23361;BME280;11852;50.082;18.554;2023-05-03T01:53:36;99225.5;;;13.24;84.94
23361;BME280;11852;50.082;18.554;2023-05-03T01:54:43;99229.0;;;13.07;85.29
23361;BME280;11852;50.082;18.554;2023-05-03T01:55:50;99228.0;;;13.09;85.24
23361;BME280;11852;50.082;18.554;2023-05-03T01:56:57;99228.0;;;13.1;85.26
23361;BME280;11852;50.082;18.554;2023-05-03T01:58:03;99230.01;;;13.16;85.12
23361;BME280;11852;50.082;18.554;2023-05-03T01:59:10;99230.01;;;13.17;85.11
23361;BME280;11852;50.082;18.554;2023-05-03T02:00:17;99230.01;;;13.18;85.08
23361;BME280;11852;50.082;18.554;2023-05-03T02:01:24;99229.51;;;13.22;85.07
23361;BME280;11852;50.082;18.554;2023-05-03T02:02:31;99228.0;;;13.23;85.12
23361;BME280;11852;50.082;18.554;2023-05-03T02:03:38;99228.0;;;13.22;85.17
23361;BME280;11852;50.082;18.554;2023-05-03T02:04:44;99228.5;;;13.21;85.21
23361;BME280;11852;50.082;18.554;2023-05-03T02:05:51;99230.0;;;13.25;85.08
23361;BME280;11852;50.082;18.554;2023-05-03T02:06:58;99230.01;;;13.24;85.13
23361;BME280;11852;50.082;18.554;2023-05-03T02:08:05;99229.5;;;13.27;85.04
23361;BME280;11852;50.082;18.554;2023-05-03T02:09:11;99230.5;;;13.26;85.07
23361;BME280;11852;50.082;18.554;2023-05-03T02:10:18;99229.51;;;13.25;85.04
23361;BME280;11852;50.082;18.554;2023-05-03T02:11:25;99229.0;;;13.26;85.06
23361;BME280;11852;50.082;18.554;2023-05-03T02:12:32;99229.51;;;13.24;85.1
23361;BME280;11852;50.082;18.554;2023-05-03T02:13:38;99226.5;;;13.27;84.99
23361;BME280;11852;50.082;18.554;2023-05-03T02:14:45;99226.0;;;13.26;85.07
23361;BME280;11852;50.082;18.554;2023-05-03T02:15:52;99226.5;;;13.27;85.08
23361;BME280;11852;50.082;18.554;2023-05-03T02:16:59;99229.0;;;13.23;85.07
23361;BME280;11852;50.082;18.554;2023-05-03T02:18:06;99229.0;;;13.22;85.07
23361;BME280;11852;50.082;18.554;2023-05-03T02:19:12;99229.5;;;13.21;85.01
23361;BME280;11852;50.082;18.554;2023-05-03T02:20:19;99230.01;;;13.2;84.92
23361;BME280;11852;50.082;18.554;2023-05-03T02:21:26;99227.5;;;13.21;84.83
23361;BME280;11852;50.082;18.554;2023-05-03T02:22:33;99231.99;;;13.2;84.79
23361;BME280;11852;50.082;18.554;2023-05-03T02:23:39;99230.5;;;13.21;84.68
23361;BME280;11852;50.082;18.554;2023-05-03T02:24:46;99231.99;;;13.2;84.65
23361;BME280;11852;50.082;18.554;2023-05-03T02:25:53;99231.0;;;13.19;84.68
23361;BME280;11852;50.082;18.554;2023-05-03T02:27:00;99231.99;;;13.18;84.71
23361;BME280;11852;50.082;18.554;2023-05-03T02:28:07;99232.49;;;13.19;84.49
23361;BME280;11852;50.082;18.554;2023-05-03T02:29:13;99231.0;;;13.19;84.58
23361;BME280;11852;50.082;18.554;2023-05-03T02:30:20;99230.0;;;13.19;84.61
23361;BME280;11852;50.082;18.554;2023-05-03T02:31:27;99232.49;;;13.18;84.71
23361;BME280;11852;50.082;18.554;2023-05-03T02:32:34;99231.0;;;13.17;84.73
23361;BME280;11852;50.082;18.554;2023-05-03T02:33:41;99231.99;;;13.16;84.76
23361;BME280;11852;50.082;18.554;2023-05-03T02:34:48;99232.5;;;13.15;84.83
23361;BME280;11852;50.082;18.554;2023-05-03T02:35:54;99234.0;;;13.15;84.85
23361;BME280;11852;50.082;18.554;2023-05-03T02:37:01;99235.0;;;13.16;84.76
23361;BME280;11852;50.082;18.554;2023-05-03T02:38:08;99235.0;;;13.14;84.82
23361;BME280;11852;50.082;18.554;2023-05-03T02:39:14;99234.5;;;13.15;84.81
23361;BME280;11852;50.082;18.554;2023-05-03T02:40:21;99233.5;;;13.12;84.89
23361;BME280;11852;50.082;18.554;2023-05-03T02:41:28;99236.5;;;13.14;84.87
23361;BME280;11852;50.082;18.554;2023-05-03T02:42:35;99237.0;;;13.14;84.88
23361;BME280;11852;50.082;18.554;2023-05-03T02:43:42;99238.5;;;13.18;84.79
23361;BME280;11852;50.082;18.554;2023-05-03T02:44:49;99236.0;;;13.17;84.78
23361;BME280;11852;50.082;18.554;2023-05-03T02:45:55;99238.5;;;13.17;84.75
23361;BME280;11852;50.082;18.554;2023-05-03T02:47:02;99238.5;;;13.17;84.74
23361;BME280;11852;50.082;18.554;2023-05-03T02:48:09;99237.5;;;13.17;84.67
23361;BME280;11852;50.082;18.554;2023-05-03T02:49:16;99239.5;;;13.18;84.61
23361;BME280;11852;50.082;18.554;2023-05-03T02:50:23;99243.01;;;13.18;84.62
23361;BME280;11852;50.082;18.554;2023-05-03T02:51:30;99240.5;;;13.15;84.63
23361;BME280;11852;50.082;18.554;2023-05-03T02:52:36;99243.51;;;13.15;84.68
23361;BME280;11852;50.082;18.554;2023-05-03T02:53:43;99243.51;;;13.11;84.57
23361;BME280;11852;50.082;18.554;2023-05-03T02:54:50;99246.0;;;13.06;84.65
23361;BME280;11852;50.082;18.554;2023-05-03T02:55:57;99245.5;;;13.01;84.69
23361;BME280;11852;50.082;18.554;2023-05-03T02:57:04;99246.0;;;12.82;85.21
23361;BME280;11852;50.082;18.554;2023-05-03T02:58:11;99241.5;;;12.64;85.79
23361;BME280;11852;50.082;18.554;2023-05-03T02:59:17;99243.0;;;12.72;85.25
23361;BME280;11852;50.082;18.554;2023-05-03T03:00:24;99245.0;;;12.84;85.21
23361;BME280;11852;50.082;18.554;2023-05-03T03:01:33;99246.0;;;12.9;85.17
23361;BME280;11852;50.082;18.554;2023-05-03T03:02:40;99246.5;;;12.93;85.1
23361;BME280;11852;50.082;18.554;2023-05-03T03:03:47;99247.0;;;12.9;85.16
23361;BME280;11852;50.082;18.554;2023-05-03T03:04:54;99248.0;;;12.93;85.1
23361;BME280;11852;50.082;18.554;2023-05-03T03:06:01;99249.0;;;12.97;85.08
23361;BME280;11852;50.082;18.554;2023-05-03T03:07:07;99248.0;;;12.93;85.06
23361;BME280;11852;50.082;18.554;2023-05-03T03:08:14;99248.0;;;12.93;85.01
23361;BME280;11852;50.082;18.554;2023-05-03T03:09:21;99248.5;;;12.93;85.12
23361;BME280;11852;50.082;18.554;2023-05-03T03:10:28;99249.5;;;12.97;85.1
23361;BME280;11852;50.082;18.554;2023-05-03T03:11:35;99252.0;;;13.01;85.04
23361;BME280;11852;50.082;18.554;2023-05-03T03:12:41;99252.0;;;13.02;85.04
23361;BME280;11852;50.082;18.554;2023-05-03T03:13:48;99255.0;;;12.98;85.06
23361;BME280;11852;50.082;18.554;2023-05-03T03:14:55;99254.51;;;12.94;85.14
23361;BME280;11852;50.082;18.554;2023-05-03T03:16:02;99256.5;;;12.98;85.12
23361;BME280;11852;50.082;18.554;2023-05-03T03:17:09;99255.51;;;12.95;85.13
23361;BME280;11852;50.082;18.554;2023-05-03T03:18:15;99254.0;;;12.98;85.13
23361;BME280;11852;50.082;18.554;2023-05-03T03:19:22;99255.0;;;12.93;85.21
23361;BME280;11852;50.082;18.554;2023-05-03T03:20:29;99253.5;;;12.92;85.18
23361;BME280;11852;50.082;18.554;2023-05-03T03:21:36;99252.0;;;12.93;85.21
23361;BME280;11852;50.082;18.554;2023-05-03T03:22:43;99253.0;;;12.91;85.26
23361;BME280;11852;50.082;18.554;2023-05-03T03:23:50;99255.5;;;12.9;85.35
23361;BME280;11852;50.082;18.554;2023-05-03T03:24:57;99255.5;;;12.84;85.47
23361;BME280;11852;50.082;18.554;2023-05-03T03:26:03;99257.49;;;12.84;85.31
23361;BME280;11852;50.082;18.554;2023-05-03T03:27:10;99256.0;;;12.84;85.33
23361;BME280;11852;50.082;18.554;2023-05-03T03:28:17;99255.5;;;12.85;85.42
23361;BME280;11852;50.082;18.554;2023-05-03T03:29:24;99256.99;;;12.84;85.32
23361;BME280;11852;50.082;18.554;2023-05-03T03:30:31;99256.5;;;12.88;85.32
23361;BME280;11852;50.082;18.554;2023-05-03T03:31:37;99256.5;;;12.88;85.28
23361;BME280;11852;50.082;18.554;2023-05-03T03:32:44;99257.0;;;12.82;85.38
23361;BME280;11852;50.082;18.554;2023-05-03T03:33:51;99258.5;;;12.81;85.47
23361;BME280;11852;50.082;18.554;2023-05-03T03:34:58;99257.49;;;12.82;85.4
23361;BME280;11852;50.082;18.554;2023-05-03T03:36:05;99256.5;;;12.82;85.38
23361;BME280;11852;50.082;18.554;2023-05-03T03:37:11;99257.5;;;12.78;85.45
23361;BME280;11852;50.082;18.554;2023-05-03T03:38:18;99257.49;;;12.72;85.6
23361;BME280;11852;50.082;18.554;2023-05-03T03:39:25;99263.5;;;12.51;86.1
23361;BME280;11852;50.082;18.554;2023-05-03T03:40:32;99262.5;;;12.52;86.0
23361;BME280;11852;50.082;18.554;2023-05-03T03:41:39;99265.5;;;12.61;85.7
23361;BME280;11852;50.082;18.554;2023-05-03T03:42:45;99263.5;;;12.61;85.84
23361;BME280;11852;50.082;18.554;2023-05-03T03:43:52;99264.0;;;12.59;85.8
23361;BME280;11852;50.082;18.554;2023-05-03T03:44:59;99263.5;;;12.47;86.13
23361;BME280;11852;50.082;18.554;2023-05-03T03:46:06;99265.5;;;12.59;85.74
23361;BME280;11852;50.082;18.554;2023-05-03T03:47:13;99269.0;;;12.6;85.83
23361;BME280;11852;50.082;18.554;2023-05-03T03:48:20;99267.5;;;12.46;86.04
23361;BME280;11852;50.082;18.554;2023-05-03T03:49:26;99269.5;;;12.43;86.1
23361;BME280;11852;50.082;18.554;2023-05-03T03:50:33;99272.0;;;12.28;86.11
23361;BME280;11852;50.082;18.554;2023-05-03T03:51:40;99273.0;;;12.4;85.85
23361;BME280;11852;50.082;18.554;2023-05-03T03:52:47;99271.0;;;12.45;85.81
23361;BME280;11852;50.082;18.554;2023-05-03T03:53:54;99272.5;;;12.51;85.74
23361;BME280;11852;50.082;18.554;2023-05-03T03:55:00;99278.0;;;12.51;85.85
23361;BME280;11852;50.082;18.554;2023-05-03T03:56:07;99278.0;;;12.27;86.33
23361;BME280;11852;50.082;18.554;2023-05-03T03:57:14;99278.5;;;12.36;86.16
23361;BME280;11852;50.082;18.554;2023-05-03T03:58:21;99279.5;;;12.49;85.82
23361;BME280;11852;50.082;18.554;2023-05-03T03:59:28;99282.49;;;12.51;85.9
23361;BME280;11852;50.082;18.554;2023-05-03T04:00:37;99285.5;;;12.47;85.97
23361;BME280;11852;50.082;18.554;2023-05-03T04:01:44;99284.5;;;12.51;85.74
23361;BME280;11852;50.082;18.554;2023-05-03T04:02:51;99288.5;;;12.56;85.67
23361;BME280;11852;50.082;18.554;2023-05-03T04:03:58;99286.5;;;12.47;85.93
23361;BME280;11852;50.082;18.554;2023-05-03T04:05:05;99290.0;;;12.54;85.71
23361;BME280;11852;50.082;18.554;2023-05-03T04:06:11;99290.0;;;12.57;85.8
23361;BME280;11852;50.082;18.554;2023-05-03T04:07:18;99289.5;;;12.56;85.79
23361;BME280;11852;50.082;18.554;2023-05-03T04:08:25;99293.0;;;12.58;85.64
23361;BME280;11852;50.082;18.554;2023-05-03T04:09:32;99293.51;;;12.56;85.65
23361;BME280;11852;50.082;18.554;2023-05-03T04:10:38;99295.49;;;12.6;85.63
23361;BME280;11852;50.082;18.554;2023-05-03T04:11:45;99292.51;;;12.53;85.76
23361;BME280;11852;50.082;18.554;2023-05-03T04:12:52;99294.99;;;12.53;85.62
23361;BME280;11852;50.082;18.554;2023-05-03T04:13:59;99297.5;;;12.55;85.49
23361;BME280;11852;50.082;18.554;2023-05-03T04:15:06;99300.0;;;12.54;85.63
23361;BME280;11852;50.082;18.554;2023-05-03T04:16:13;99300.0;;;12.3;86.12
23361;BME280;11852;50.082;18.554;2023-05-03T04:17:20;99299.0;;;12.22;86.33
23361;BME280;11852;50.082;18.554;2023-05-03T04:18:26;99301.5;;;12.34;86.12
23361;BME280;11852;50.082;18.554;2023-05-03T04:19:33;99303.5;;;12.43;85.92
23361;BME280;11852;50.082;18.554;2023-05-03T04:20:40;99304.5;;;12.51;85.82
23361;BME280;11852;50.082;18.554;2023-05-03T04:21:47;99306.99;;;12.55;85.73
23361;BME280;11852;50.082;18.554;2023-05-03T04:22:54;99306.0;;;12.57;85.76
23361;BME280;11852;50.082;18.554;2023-05-03T04:24:01;99306.0;;;12.47;86.04
23361;BME280;11852;50.082;18.554;2023-05-03T04:25:09;99310.0;;;12.36;86.18
23361;BME280;11852;50.082;18.554;2023-05-03T04:26:14;99312.5;;;12.52;85.83
23361;BME280;11852;50.082;18.554;2023-05-03T04:27:21;99312.0;;;12.55;85.85
23361;BME280;11852;50.082;18.554;2023-05-03T04:28:27;99314.0;;;12.59;85.81
23361;BME280;11852;50.082;18.554;2023-05-03T04:29:34;99315.0;;;12.6;85.74
23361;BME280;11852;50.082;18.554;2023-05-03T04:30:41;99319.0;;;12.46;86.05
23361;BME280;11852;50.082;18.554;2023-05-03T04:31:48;99320.5;;;12.42;86.15
23361;BME280;11852;50.082;18.554;2023-05-03T04:32:54;99319.99;;;12.47;85.97
23361;BME280;11852;50.082;18.554;2023-05-03T04:34:01;99321.0;;;12.44;86.13
23361;BME280;11852;50.082;18.554;2023-05-03T04:35:09;99323.5;;;12.34;86.31
23361;BME280;11852;50.082;18.554;2023-05-03T04:36:15;99325.0;;;12.41;86.09
23361;BME280;11852;50.082;18.554;2023-05-03T04:37:21;99325.5;;;12.39;86.1
23361;BME280;11852;50.082;18.554;2023-05-03T04:38:28;99329.51;;;12.32;86.29
23361;BME280;11852;50.082;18.554;2023-05-03T04:39:35;99332.99;;;12.39;86.08
23361;BME280;11852;50.082;18.554;2023-05-03T04:40:42;99332.99;;;12.36;86.0
23361;BME280;11852;50.082;18.554;2023-05-03T04:41:49;99337.0;;;12.34;86.16
23361;BME280;11852;50.082;18.554;2023-05-03T04:42:56;99336.0;;;12.29;86.21
23361;BME280;11852;50.082;18.554;2023-05-03T04:44:04;99336.5;;;12.3;86.08
23361;BME280;11852;50.082;18.554;2023-05-03T04:45:09;99337.5;;;12.06;86.74
23361;BME280;11852;50.082;18.554;2023-05-03T04:46:16;99337.5;;;12.11;86.4
23361;BME280;11852;50.082;18.554;2023-05-03T04:47:23;99339.5;;;12.03;86.58
23361;BME280;11852;50.082;18.554;2023-05-03T04:48:30;99341.5;;;11.91;86.85
23361;BME280;11852;50.082;18.554;2023-05-03T04:49:36;99342.01;;;11.9;86.63
23361;BME280;11852;50.082;18.554;2023-05-03T04:50:43;99343.0;;;11.93;86.5
23361;BME280;11852;50.082;18.554;2023-05-03T04:51:50;99343.5;;;11.89;86.54
23361;BME280;11852;50.082;18.554;2023-05-03T04:52:57;99346.0;;;11.76;86.83
23361;BME280;11852;50.082;18.554;2023-05-03T04:54:04;99349.0;;;11.74;86.65
23361;BME280;11852;50.082;18.554;2023-05-03T04:55:10;99346.0;;;11.8;86.49
23361;BME280;11852;50.082;18.554;2023-05-03T04:56:17;99350.0;;;11.83;86.43
23361;BME280;11852;50.082;18.554;2023-05-03T04:57:24;99348.5;;;11.58;87.04
23361;BME280;11852;50.082;18.554;2023-05-03T04:58:31;99353.0;;;11.75;86.6
23361;BME280;11852;50.082;18.554;2023-05-03T04:59:38;99350.0;;;11.7;86.82
23361;BME280;11852;50.082;18.554;2023-05-03T05:00:44;99355.5;;;11.53;87.1
23361;BME280;11852;50.082;18.554;2023-05-03T05:01:51;99356.0;;;11.62;86.85
23361;BME280;11852;50.082;18.554;2023-05-03T05:02:58;99356.0;;;11.69;86.65
23361;BME280;11852;50.082;18.554;2023-05-03T05:04:05;99358.5;;;11.76;86.45
23361;BME280;11852;50.082;18.554;2023-05-03T05:05:11;99361.5;;;11.8;86.32
23361;BME280;11852;50.082;18.554;2023-05-03T05:06:18;99358.5;;;11.45;87.05
23361;BME280;11852;50.082;18.554;2023-05-03T05:07:25;99360.0;;;11.51;86.67
23361;BME280;11852;50.082;18.554;2023-05-03T05:08:32;99362.5;;;11.6;86.56
23361;BME280;11852;50.082;18.554;2023-05-03T05:09:39;99365.0;;;11.5;86.79
23361;BME280;11852;50.082;18.554;2023-05-03T05:10:46;99365.0;;;11.68;86.35
23361;BME280;11852;50.082;18.554;2023-05-03T05:11:53;99364.5;;;11.68;86.38
23361;BME280;11852;50.082;18.554;2023-05-03T05:12:59;99369.0;;;11.57;86.38
23361;BME280;11852;50.082;18.554;2023-05-03T05:14:06;99366.0;;;11.62;86.41
23361;BME280;11852;50.082;18.554;2023-05-03T05:15:13;99369.99;;;11.55;86.29
23361;BME280;11852;50.082;18.554;2023-05-03T05:16:20;99369.0;;;11.6;86.07
23361;BME280;11852;50.082;18.554;2023-05-03T05:17:26;99372.0;;;11.64;86.01
23361;BME280;11852;50.082;18.554;2023-05-03T05:18:33;99370.49;;;11.6;86.15
23361;BME280;11852;50.082;18.554;2023-05-03T05:19:40;99373.5;;;11.59;85.91
23361;BME280;11852;50.082;18.554;2023-05-03T05:20:47;99374.5;;;11.43;86.1
23361;BME280;11852;50.082;18.554;2023-05-03T05:21:54;99373.0;;;11.46;85.71
23361;BME280;11852;50.082;18.554;2023-05-03T05:23:00;99376.0;;;11.45;85.84
23361;BME280;11852;50.082;18.554;2023-05-03T05:24:07;99376.0;;;11.45;85.77
23361;BME280;11852;50.082;18.554;2023-05-03T05:25:14;99378.5;;;11.49;85.72
23361;BME280;11852;50.082;18.554;2023-05-03T05:26:21;99378.5;;;11.53;85.65
23361;BME280;11852;50.082;18.554;2023-05-03T05:27:27;99381.0;;;11.53;85.72
23361;BME280;11852;50.082;18.554;2023-05-03T05:28:34;99384.0;;;11.45;85.58
23361;BME280;11852;50.082;18.554;2023-05-03T05:29:41;99381.5;;;11.48;85.68
23361;BME280;11852;50.082;18.554;2023-05-03T05:30:48;99384.5;;;11.49;85.33
23361;BME280;11852;50.082;18.554;2023-05-03T05:31:55;99385.5;;;11.53;85.26
23361;BME280;11852;50.082;18.554;2023-05-03T05:33:01;99389.0;;;11.39;85.54
23361;BME280;11852;50.082;18.554;2023-05-03T05:34:08;99393.51;;;11.35;85.61
23361;BME280;11852;50.082;18.554;2023-05-03T05:35:16;99394.0;;;11.35;85.54
23361;BME280;11852;50.082;18.554;2023-05-03T05:36:22;99396.0;;;11.35;85.35
23361;BME280;11852;50.082;18.554;2023-05-03T05:37:29;99397.0;;;11.2;85.69
23361;BME280;11852;50.082;18.554;2023-05-03T05:38:40;99398.0;;;11.24;85.58
23361;BME280;11852;50.082;18.554;2023-05-03T05:39:47;99397.5;;;11.28;85.56
23361;BME280;11852;50.082;18.554;2023-05-03T05:40:53;99398.5;;;11.35;85.54
23361;BME280;11852;50.082;18.554;2023-05-03T05:42:00;99396.5;;;11.37;85.53
23361;BME280;11852;50.082;18.554;2023-05-03T05:43:07;99398.0;;;11.42;85.43
23361;BME280;11852;50.082;18.554;2023-05-03T05:44:14;99398.0;;;11.34;85.46
23361;BME280;11852;50.082;18.554;2023-05-03T05:45:21;99398.5;;;11.45;85.26
23361;BME280;11852;50.082;18.554;2023-05-03T05:46:28;99401.0;;;11.52;85.19
23361;BME280;11852;50.082;18.554;2023-05-03T05:47:35;99399.0;;;11.42;85.35
23361;BME280;11852;50.082;18.554;2023-05-03T05:48:41;99400.5;;;11.47;85.14
23361;BME280;11852;50.082;18.554;2023-05-03T05:49:49;99405.5;;;11.45;85.18
23361;BME280;11852;50.082;18.554;2023-05-03T05:50:56;99407.49;;;11.39;85.18
23361;BME280;11852;50.082;18.554;2023-05-03T05:52:03;99407.5;;;11.29;85.26
23361;BME280;11852;50.082;18.554;2023-05-03T05:53:10;99408.0;;;11.26;85.23
23361;BME280;11852;50.082;18.554;2023-05-03T05:54:17;99408.5;;;11.38;85.06
23361;BME280;11852;50.082;18.554;2023-05-03T05:55:23;99410.5;;;11.47;84.99
23361;BME280;11852;50.082;18.554;2023-05-03T05:56:30;99412.5;;;11.29;84.94
23361;BME280;11852;50.082;18.554;2023-05-03T05:57:41;99411.0;;;11.39;84.73
23361;BME280;11852;50.082;18.554;2023-05-03T05:58:48;99413.0;;;11.22;85.05
23361;BME280;11852;50.082;18.554;2023-05-03T05:59:54;99414.5;;;11.3;84.76
23361;BME280;11852;50.082;18.554;2023-05-03T06:01:01;99414.5;;;11.37;84.81
23361;BME280;11852;50.082;18.554;2023-05-03T06:02:14;99415.5;;;11.32;84.96
23361;BME280;11852;50.082;18.554;2023-05-03T06:03:15;99417.01;;;11.16;85.21